Time;durP1;ratioP1;P1;durP2;ratioP2;P2;SDS_P1;SDS_P2;PMS_P1;PMS_P2;Temp;Humidity;BMP_temperature;BMP_pressure;BME280_temperature;BME280_humidity;BME280_pressure;Samples;Min_cycle;Max_cycle;Signal;HPM_P1;HPM_P2
2023/10/28 00:02:26;;;;;;;6.70;5.22;;;9.90;99.90;;;;;;4977152;28;20196;-67
2023/10/28 00:04:53;;;;;;;8.88;6.13;;;9.90;99.90;;;;;;4964317;28;20206;-67
2023/10/28 00:07:21;;;;;;;6.93;5.22;;;9.90;99.90;;;;;;4981626;28;20207;-68
2023/10/28 00:09:48;;;;;;;7.53;5.63;;;9.90;99.90;;;;;;4975126;28;20392;-67
2023/10/28 00:12:15;;;;;;;6.53;5.63;;;9.90;99.90;;;;;;4952130;28;20280;-67
2023/10/28 00:14:42;;;;;;;7.47;5.65;;;8.60;99.90;;;;;;4964055;28;20234;-68
2023/10/28 00:17:09;;;;;;;9.20;5.82;;;9.70;99.90;;;;;;4981557;28;20696;-67
2023/10/28 00:19:36;;;;;;;8.27;5.53;;;9.80;99.90;;;;;;4964802;28;20286;-68
2023/10/28 00:22:03;;;;;;;8.23;5.25;;;10.20;99.90;;;;;;4969492;28;20389;-67
2023/10/28 00:24:31;;;;;;;9.98;6.30;;;10.00;99.90;;;;;;4980087;28;20195;-67
2023/10/28 00:26:57;;;;;;;8.95;5.50;;;9.80;99.90;;;;;;4943235;28;21112;-67
2023/10/28 00:29:24;;;;;;;7.03;5.55;;;9.90;99.90;;;;;;4981249;28;20995;-67
2023/10/28 00:31:51;;;;;;;9.48;5.72;;;9.80;99.90;;;;;;4954958;28;20210;-67
2023/10/28 00:34:18;;;;;;;7.05;5.47;;;9.90;99.90;;;;;;4978964;28;20217;-67
2023/10/28 00:36:46;;;;;;;10.13;5.97;;;9.90;99.90;;;;;;4964817;28;20772;-68
2023/10/28 00:39:13;;;;;;;10.63;6.35;;;9.90;99.90;;;;;;4978116;28;20230;-68
2023/10/28 00:41:42;;;;;;;7.90;5.13;;;9.90;99.90;;;;;;4963087;28;20210;-68
2023/10/28 00:44:09;;;;;;;8.13;5.47;;;10.00;99.90;;;;;;4946021;28;20585;-67
2023/10/28 00:46:36;;;;;;;7.80;5.38;;;9.90;99.90;;;;;;4962947;28;21020;-67
2023/10/28 00:49:03;;;;;;;7.50;5.90;;;9.90;99.90;;;;;;4973384;28;20232;-67
2023/10/28 00:51:31;;;;;;;6.85;5.13;;;9.80;99.90;;;;;;4964568;28;20207;-68
2023/10/28 00:53:58;;;;;;;7.72;5.70;;;9.80;99.90;;;;;;4972740;28;20207;-67
2023/10/28 00:56:26;;;;;;;7.22;5.45;;;9.90;99.90;;;;;;4969236;28;20238;-67
2023/10/28 00:58:54;;;;;;;6.93;4.88;;;10.00;99.90;;;;;;4941188;28;20771;-68
2023/10/28 01:01:21;;;;;;;7.15;4.80;;;10.00;99.90;;;;;;4964463;28;20221;-67
2023/10/28 01:03:48;;;;;;;5.68;4.50;;;10.00;99.90;;;;;;4956873;28;20438;-67
2023/10/28 01:06:16;;;;;;;5.85;4.05;;;9.90;99.90;;;;;;4960465;28;20210;-67
2023/10/28 01:08:43;;;;;;;5.15;4.22;;;9.90;99.90;;;;;;4966822;28;20253;-67
2023/10/28 01:11:10;;;;;;;6.47;4.57;;;10.00;99.90;;;;;;4964494;28;20214;-67
2023/10/28 01:13:37;;;;;;;5.45;4.68;;;10.00;99.90;;;;;;4955223;28;20207;-67
2023/10/28 01:16:08;;;;;;;6.07;4.32;;;10.00;99.90;;;;;;4945119;28;20239;-68
2023/10/28 01:18:35;;;;;;;6.05;4.78;;;10.00;99.90;;;;;;4960938;28;20370;-68
2023/10/28 01:21:09;;;;;;;7.20;4.38;;;9.90;99.90;;;;;;4958325;28;20977;-68
2023/10/28 01:23:36;;;;;;;8.63;5.20;;;9.90;99.90;;;;;;4968615;28;20229;-67
2023/10/28 01:26:03;;;;;;;6.90;4.97;;;9.90;99.90;;;;;;4969361;28;20562;-67
2023/10/28 01:28:30;;;;;;;5.57;4.20;;;9.90;99.90;;;;;;4961428;28;20675;-67
2023/10/28 01:30:59;;;;;;;6.50;4.47;;;9.90;99.90;;;;;;4938989;28;20601;-67
2023/10/28 01:33:27;;;;;;;9.38;4.30;;;9.90;99.90;;;;;;4964021;28;20226;-67
2023/10/28 01:36:20;;;;;;;5.25;4.13;;;9.80;99.90;;;;;;4955005;28;20492;-68
2023/10/28 01:38:48;;;;;;;6.18;4.40;;;9.90;99.90;;;;;;4940042;28;20554;-68
2023/10/28 01:41:14;;;;;;;8.63;5.05;;;9.90;99.90;;;;;;4977567;28;20234;-67
2023/10/28 01:43:44;;;;;;;5.30;4.35;;;9.90;99.90;;;;;;4975529;28;20206;-67
2023/10/28 01:46:11;;;;;;;6.50;4.68;;;9.90;99.90;;;;;;4936415;28;20695;-67
2023/10/28 01:48:38;;;;;;;6.25;4.53;;;9.90;99.90;;;;;;4970283;28;20205;-68
2023/10/28 01:51:05;;;;;;;8.38;4.82;;;9.80;99.90;;;;;;4976245;28;20434;-67
2023/10/28 01:53:33;;;;;;;6.55;5.10;;;9.90;99.90;;;;;;4971503;28;20210;-67
2023/10/28 01:56:00;;;;;;;7.50;5.40;;;9.90;99.90;;;;;;4978444;28;20597;-68
2023/10/28 01:58:28;;;;;;;6.35;5.22;;;;;;;;;;4983810;28;20191;-68
2023/10/28 02:00:55;;;;;;;7.07;4.88;;;9.90;99.90;;;;;;4945901;28;20654;-68
2023/10/28 02:03:22;;;;;;;5.32;4.32;;;9.90;99.90;;;;;;4970720;28;20421;-68
2023/10/28 02:05:48;;;;;;;6.38;5.03;;;9.90;99.90;;;;;;4961705;28;20214;-67
2023/10/28 02:08:15;;;;;;;6.50;4.93;;;9.90;99.90;;;;;;4961687;28;20854;-67
2023/10/28 02:10:43;;;;;;;6.03;5.15;;;9.90;99.90;;;;;;4973377;28;20208;-67
2023/10/28 02:13:12;;;;;;;7.60;4.95;;;9.10;99.90;;;;;;4970865;28;20332;-68
2023/10/28 02:15:39;;;;;;;7.20;4.85;;;9.90;99.90;;;;;;4973163;28;20222;-67
2023/10/28 02:18:06;;;;;;;7.75;5.13;;;9.90;99.90;;;;;;4938574;28;20242;-68
2023/10/28 02:20:33;;;;;;;6.50;4.72;;;10.70;99.90;;;;;;4960944;28;20673;-68
2023/10/28 02:23:00;;;;;;;10.00;5.45;;;9.90;99.90;;;;;;4960367;28;20584;-68
2023/10/28 02:25:26;;;;;;;7.32;5.28;;;9.90;99.90;;;;;;4970601;28;20207;-68
2023/10/28 02:27:55;;;;;;;5.72;4.78;;;9.90;99.90;;;;;;4971984;28;20225;-67
2023/10/28 02:30:21;;;;;;;5.53;4.63;;;9.90;99.90;;;;;;4969527;28;20213;-67
2023/10/28 02:32:48;;;;;;;6.50;4.95;;;9.90;99.90;;;;;;4944195;28;20231;-67
2023/10/28 02:35:15;;;;;;;6.20;4.82;;;9.90;99.90;;;;;;4965295;28;20238;-67
2023/10/28 02:37:42;;;;;;;5.15;4.20;;;9.90;99.90;;;;;;4965607;28;20561;-67
2023/10/28 02:40:09;;;;;;;7.45;5.15;;;9.90;99.90;;;;;;4976240;28;20205;-67
2023/10/28 02:42:36;;;;;;;7.00;4.63;;;9.90;99.90;;;;;;4970774;28;20297;-67
2023/10/28 02:45:07;;;;;;;8.15;4.47;;;10.40;99.90;;;;;;4979410;28;20281;-67
2023/10/28 02:47:34;;;;;;;6.07;4.47;;;9.90;99.90;;;;;;4943141;28;21120;-67
2023/10/28 02:50:01;;;;;;;8.43;5.68;;;9.90;99.90;;;;;;4962109;28;20207;-68
2023/10/28 02:52:27;;;;;;;8.07;5.72;;;9.90;99.90;;;;;;4975769;28;21225;-68
2023/10/28 02:54:55;;;;;;;6.63;5.30;;;;;;;;;;4964900;28;20246;-68
2023/10/28 02:57:21;;;;;;;7.55;5.22;;;9.90;99.90;;;;;;4977094;28;20199;-67
2023/10/28 02:59:48;;;;;;;7.32;5.25;;;9.90;99.90;;;;;;4976009;28;20203;-67
2023/10/28 03:02:16;;;;;;;7.97;5.10;;;9.80;99.90;;;;;;4937351;28;20206;-67
2023/10/28 03:04:43;;;;;;;7.57;5.50;;;9.90;99.90;;;;;;4939494;28;20295;-68
2023/10/28 03:07:10;;;;;;;8.85;5.78;;;9.90;99.90;;;;;;4961935;28;20200;-67
2023/10/28 03:09:37;;;;;;;7.50;5.22;;;9.80;99.90;;;;;;4966596;28;20202;-67
2023/10/28 03:12:06;;;;;;;6.65;5.18;;;9.80;99.90;;;;;;4974559;28;20382;-67
2023/10/28 03:14:32;;;;;;;8.60;5.45;;;9.90;99.90;;;;;;4977441;28;20202;-67
2023/10/28 03:17:00;;;;;;;7.93;5.40;;;9.90;99.90;;;;;;4972231;28;20230;-68
2023/10/28 03:19:28;;;;;;;10.18;5.47;;;9.90;99.90;;;;;;4944976;28;20223;-67
2023/10/28 03:21:54;;;;;;;7.15;5.65;;;9.90;99.90;;;;;;4957141;28;21109;-67
2023/10/28 03:24:23;;;;;;;7.13;5.30;;;10.00;99.90;;;;;;4978427;28;20575;-67
2023/10/28 03:26:50;;;;;;;10.20;5.45;;;9.90;99.90;;;;;;4964383;28;20207;-68
2023/10/28 03:29:16;;;;;;;11.55;5.68;;;9.80;99.90;;;;;;4971792;28;20225;-67
2023/10/28 03:31:43;;;;;;;8.05;6.20;;;9.90;99.90;;;;;;4975652;28;20580;-67
2023/10/28 03:34:10;;;;;;;9.82;6.10;;;9.90;99.90;;;;;;4937170;28;20238;-67
2023/10/28 03:36:38;;;;;;;8.70;6.10;;;9.90;99.90;;;;;;4968197;28;20231;-67
2023/10/28 03:39:05;;;;;;;8.40;5.70;;;10.00;99.90;;;;;;4956603;28;20405;-67
2023/10/28 03:41:32;;;;;;;10.77;5.88;;;9.90;99.90;;;;;;4965274;28;20209;-67
2023/10/28 03:43:59;;;;;;;10.70;5.70;;;9.60;99.90;;;;;;4968847;28;20211;-67
2023/10/28 03:46:26;;;;;;;7.70;5.65;;;9.90;99.90;;;;;;4975886;28;20207;-67
2023/10/28 03:48:53;;;;;;;10.85;5.88;;;9.90;99.90;;;;;;4939294;28;20203;-67
2023/10/28 03:51:20;;;;;;;9.68;5.95;;;9.90;99.90;;;;;;4971522;28;20202;-67
2023/10/28 03:53:48;;;;;;;7.40;5.85;;;10.00;99.90;;;;;;4962443;28;20948;-67
2023/10/28 03:56:15;;;;;;;9.05;5.78;;;9.90;99.90;;;;;;4966283;28;20223;-67
2023/10/28 03:58:42;;;;;;;8.88;6.35;;;9.70;99.90;;;;;;4961415;28;20195;-67
2023/10/28 04:01:10;;;;;;;8.77;5.43;;;9.90;99.90;;;;;;4954918;28;20798;-67
2023/10/28 04:03:36;;;;;;;9.02;5.70;;;9.90;99.90;;;;;;4921803;28;20240;-68
2023/10/28 04:06:04;;;;;;;12.15;6.68;;;9.90;99.90;;;;;;4977768;28;20548;-67
2023/10/28 04:08:31;;;;;;;9.55;6.18;;;9.90;99.90;;;;;;4959891;28;20210;-67
2023/10/28 04:11:00;;;;;;;9.57;5.78;;;9.90;99.90;;;;;;4962986;28;20704;-67
2023/10/28 04:13:26;;;;;;;13.30;6.32;;;9.90;99.90;;;;;;4965284;28;20649;-67
2023/10/28 04:15:53;;;;;;;13.07;6.90;;;9.90;99.90;;;;;;4974437;28;20222;-68
2023/10/28 04:18:20;;;;;;;9.35;6.82;;;9.90;99.90;;;;;;4955690;28;20245;-67
2023/10/28 04:20:50;;;;;;;9.13;5.60;;;9.90;99.90;;;;;;4960604;28;20366;-67
2023/10/28 04:23:17;;;;;;;11.45;6.13;;;10.00;99.90;;;;;;4963834;28;20813;-68
2023/10/28 04:25:44;;;;;;;10.50;6.78;;;10.00;99.90;;;;;;4960850;28;20831;-67
2023/10/28 04:28:12;;;;;;;10.63;5.82;;;9.90;99.90;;;;;;4965453;28;20553;-67
2023/10/28 04:30:39;;;;;;;8.52;6.05;;;9.90;99.90;;;;;;4973020;28;20406;-67
2023/10/28 04:33:06;;;;;;;10.02;6.50;;;9.90;99.90;;;;;;4975841;28;20199;-67
2023/10/28 04:35:33;;;;;;;9.18;6.45;;;9.90;99.90;;;;;;4939979;28;20476;-67
2023/10/28 04:37:59;;;;;;;16.42;6.97;;;10.00;99.90;;;;;;4966459;28;20241;-67
2023/10/28 04:40:26;;;;;;;12.15;6.63;;;10.00;99.90;;;;;;4973421;28;20210;-67
2023/10/28 04:42:53;;;;;;;11.48;6.57;;;10.00;99.90;;;;;;4963906;28;20207;-67
2023/10/28 04:45:21;;;;;;;12.18;7.50;;;10.00;99.90;;;;;;4960985;28;20198;-67
2023/10/28 04:47:48;;;;;;;10.82;6.72;;;10.00;99.90;;;;;;4960939;28;20207;-67
2023/10/28 04:50:16;;;;;;;8.27;6.15;;;9.90;99.90;;;;;;4944918;28;20230;-67
2023/10/28 04:52:43;;;;;;;15.32;6.55;;;9.90;99.90;;;;;;4962149;28;20202;-67
2023/10/28 04:55:12;;;;;;;13.40;7.18;;;10.00;99.90;;;;;;4975096;28;20199;-67
2023/10/28 04:57:40;;;;;;;17.23;7.07;;;9.90;99.90;;;;;;4956906;28;20227;-67
2023/10/28 05:00:08;;;;;;;9.85;6.28;;;9.90;99.90;;;;;;4956763;28;20415;-67
2023/10/28 05:02:36;;;;;;;14.15;7.32;;;10.00;99.90;;;;;;4976836;28;20199;-67
2023/10/28 05:05:04;;;;;;;12.90;6.85;;;10.00;99.90;;;;;;4946436;28;21417;-68
2023/10/28 05:07:31;;;;;;;10.48;6.50;;;10.00;99.90;;;;;;4963050;28;20208;-67
2023/10/28 05:09:58;;;;;;;11.63;6.78;;;10.10;99.90;;;;;;4972304;28;20396;-67
2023/10/28 05:12:25;;;;;;;12.50;6.72;;;10.00;99.90;;;;;;4963567;28;20199;-68
2023/10/28 05:14:52;;;;;;;12.88;6.55;;;10.70;99.90;;;;;;4964683;28;20214;-67
2023/10/28 05:17:19;;;;;;;10.77;6.88;;;10.00;99.90;;;;;;4981152;28;20235;-68
2023/10/28 05:19:47;;;;;;;12.98;7.10;;;10.00;99.90;;;;;;4952628;28;20205;-68
2023/10/28 05:22:17;;;;;;;12.93;7.25;;;10.10;99.90;;;;;;4967599;28;20712;-67
2023/10/28 05:24:43;;;;;;;10.88;7.38;;;10.00;99.90;;;;;;4975068;28;20215;-67
2023/10/28 05:27:10;;;;;;;14.13;7.22;;;9.90;99.90;;;;;;4978489;28;20616;-68
2023/10/28 05:29:38;;;;;;;11.63;7.07;;;10.00;99.90;;;;;;4964460;28;20198;-67
2023/10/28 05:32:05;;;;;;;13.13;6.25;;;10.00;99.90;;;;;;4969715;28;20440;-67
2023/10/28 05:34:32;;;;;;;11.93;6.78;;;10.00;99.90;;;;;;4979657;28;20226;-67
2023/10/28 05:37:00;;;;;;;13.60;6.05;;;10.00;99.90;;;;;;4944580;28;20443;-67
2023/10/28 05:39:27;;;;;;;10.50;6.40;;;10.00;99.90;;;;;;4969348;28;20207;-67
2023/10/28 05:41:54;;;;;;;9.18;6.10;;;10.00;99.90;;;;;;4976998;28;20734;-68
2023/10/28 05:44:20;;;;;;;12.13;6.65;;;10.00;99.90;;;;;;4967234;28;20211;-67
2023/10/28 05:46:47;;;;;;;9.73;6.72;;;10.00;99.90;;;;;;4964088;28;20212;-67
2023/10/28 05:49:14;;;;;;;13.20;7.68;;;10.00;99.90;;;;;;4976326;28;20191;-67
2023/10/28 05:51:43;;;;;;;10.65;6.88;;;10.00;99.90;;;;;;4961906;28;21175;-68
2023/10/28 05:54:11;;;;;;;14.98;7.20;;;9.60;99.90;;;;;;4947148;28;20788;-67
2023/10/28 05:56:38;;;;;;;9.93;6.88;;;10.00;99.90;;;;;;4977901;28;20245;-67
2023/10/28 05:59:05;;;;;;;11.00;6.47;;;10.00;99.90;;;;;;4963402;28;21233;-67
2023/10/28 06:01:32;;;;;;;12.30;6.75;;;10.00;99.90;;;;;;4957517;28;20203;-67
2023/10/28 06:03:59;;;;;;;12.98;7.22;;;10.00;99.90;;;;;;4976371;28;20560;-68
2023/10/28 06:06:26;;;;;;;10.82;7.22;;;10.00;99.90;;;;;;4976884;28;20200;-68
2023/10/28 06:08:52;;;;;;;13.73;7.38;;;10.10;99.90;;;;;;4933437;28;20211;-67
2023/10/28 06:11:20;;;;;;;12.68;6.75;;;10.10;99.90;;;;;;4973758;28;20200;-67
2023/10/28 06:13:48;;;;;;;10.95;7.22;;;10.10;99.90;;;;;;4972640;28;20536;-67
2023/10/28 06:16:14;;;;;;;14.43;7.63;;;10.00;99.90;;;;;;4949813;28;20272;-67
2023/10/28 06:18:41;;;;;;;17.00;7.28;;;10.10;99.90;;;;;;4968755;28;20199;-68
2023/10/28 06:21:08;;;;;;;13.00;6.88;;;10.00;99.90;;;;;;4970794;28;20290;-67
2023/10/28 06:23:35;;;;;;;12.82;7.18;;;10.10;99.90;;;;;;4950031;28;20207;-67
2023/10/28 06:26:01;;;;;;;14.00;6.97;;;10.20;99.90;;;;;;4964382;28;20421;-67
2023/10/28 06:28:30;;;;;;;15.10;7.78;;;10.30;99.90;;;;;;4977173;28;20209;-67
2023/10/28 06:30:59;;;;;;;13.52;7.45;;;10.70;99.90;;;;;;4959146;28;20331;-67
2023/10/28 06:33:26;;;;;;;13.60;7.88;;;10.10;99.90;;;;;;4966840;28;20596;-68
2023/10/28 06:35:52;;;;;;;12.30;7.38;;;10.20;99.90;;;;;;4976438;28;20628;-68
2023/10/28 06:38:19;;;;;;;12.18;7.05;;;10.60;99.90;;;;;;4977448;28;20234;-67
2023/10/28 06:40:47;;;;;;;12.60;7.47;;;10.10;99.90;;;;;;4934221;28;20222;-67
2023/10/28 06:43:15;;;;;;;14.75;7.25;;;10.10;99.90;;;;;;4973974;28;20214;-67
2023/10/28 06:45:43;;;;;;;15.93;7.95;;;10.10;99.90;;;;;;4962604;28;20207;-68
2023/10/28 06:48:11;;;;;;;15.82;8.00;;;10.30;99.90;;;;;;4960529;28;20303;-67
2023/10/28 06:50:37;;;;;;;13.48;7.57;;;10.20;99.90;;;;;;4976524;28;20659;-68
2023/10/28 06:53:04;;;;;;;13.65;7.95;;;10.20;99.90;;;;;;4976250;28;20389;-68
2023/10/28 06:55:31;;;;;;;13.25;7.75;;;10.20;99.90;;;;;;4946546;28;20219;-67
2023/10/28 06:58:00;;;;;;;14.85;7.68;;;10.20;99.90;;;;;;4966482;28;20948;-67
2023/10/28 07:00:28;;;;;;;12.07;6.63;;;10.40;99.90;;;;;;4973280;28;20223;-67
2023/10/28 07:02:56;;;;;;;13.25;7.78;;;10.20;99.90;;;;;;4923702;28;21224;-67
2023/10/28 07:05:24;;;;;;;13.05;7.25;;;10.30;99.90;;;;;;4973965;28;20203;-67
2023/10/28 07:07:51;;;;;;;14.27;8.15;;;10.10;99.90;;;;;;4943815;28;20577;-68
2023/10/28 07:10:18;;;;;;;20.88;8.23;;;10.40;99.90;;;;;;4935646;28;20231;-68
2023/10/28 07:12:45;;;;;;;18.05;7.70;;;10.20;99.90;;;;;;4953178;28;20222;-68
2023/10/28 07:15:12;;;;;;;13.82;7.78;;;10.20;99.90;;;;;;4972600;28;20222;-67
2023/10/28 07:17:39;;;;;;;13.75;7.53;;;10.20;99.90;;;;;;4958497;28;20234;-68
2023/10/28 07:20:08;;;;;;;19.70;8.60;;;10.30;99.90;;;;;;4954696;28;20224;-67
2023/10/28 07:22:35;;;;;;;18.08;8.90;;;10.30;99.90;;;;;;4957896;28;20231;-68
2023/10/28 07:25:02;;;;;;;15.20;8.25;;;10.30;99.90;;;;;;4939042;28;20239;-68
2023/10/28 07:27:31;;;;;;;19.08;7.30;;;10.30;99.90;;;;;;4968772;28;20233;-67
2023/10/28 07:29:58;;;;;;;15.32;8.45;;;10.30;99.90;;;;;;4960474;28;20221;-67
2023/10/28 07:32:25;;;;;;;14.70;8.32;;;10.30;99.90;;;;;;4955728;28;21721;-67
2023/10/28 07:34:52;;;;;;;21.48;9.52;;;10.30;99.90;;;;;;4957423;28;20796;-67
2023/10/28 07:37:20;;;;;;;17.55;8.20;;;10.40;99.90;;;;;;4976224;28;20737;-68
2023/10/28 07:39:47;;;;;;;17.30;8.13;;;10.20;99.90;;;;;;4928036;28;20214;-68
2023/10/28 07:42:15;;;;;;;18.33;9.15;;;10.40;99.90;;;;;;4966887;28;20207;-67
2023/10/28 07:44:43;;;;;;;14.98;8.13;;;10.40;99.90;;;;;;4964302;28;20596;-67
2023/10/28 07:47:11;;;;;;;15.73;8.13;;;10.30;99.90;;;;;;4979491;28;20206;-67
2023/10/28 07:49:38;;;;;;;13.68;8.45;;;10.30;99.90;;;;;;4959875;28;20671;-68
2023/10/28 07:52:05;;;;;;;17.65;9.13;;;10.30;99.90;;;;;;4966475;28;20218;-68
2023/10/28 07:54:33;;;;;;;15.13;8.48;;;10.30;99.90;;;;;;4959134;28;20235;-68
2023/10/28 07:57:00;;;;;;;17.40;9.35;;;10.40;99.90;;;;;;4941548;28;20237;-67
2023/10/28 07:59:27;;;;;;;16.77;8.43;;;10.30;99.90;;;;;;4957046;28;20773;-68
2023/10/28 08:01:54;;;;;;;15.30;8.77;;;10.50;99.90;;;;;;4935783;28;20203;-67
2023/10/28 08:04:21;;;;;;;18.17;9.73;;;10.40;99.90;;;;;;4950926;28;20218;-67
2023/10/28 08:06:48;;;;;;;20.30;9.93;;;9.50;99.90;;;;;;4945872;28;20211;-68
2023/10/28 08:09:14;;;;;;;18.65;9.75;;;10.40;99.90;;;;;;4958428;28;20223;-67
2023/10/28 08:11:43;;;;;;;20.35;9.25;;;10.50;99.90;;;;;;4938226;28;20243;-67
2023/10/28 08:14:09;;;;;;;16.45;9.75;;;10.50;99.90;;;;;;4947667;28;20984;-68
2023/10/28 08:16:36;;;;;;;19.10;9.77;;;10.40;99.90;;;;;;4969572;28;20222;-67
2023/10/28 08:19:04;;;;;;;17.45;8.15;;;10.40;99.90;;;;;;4952758;28;21950;-68
2023/10/28 08:21:30;;;;;;;21.40;10.27;;;10.50;99.90;;;;;;4972848;28;20223;-68
2023/10/28 08:23:57;;;;;;;19.45;10.23;;;10.60;99.90;;;;;;4934603;28;20398;-67
2023/10/28 08:26:24;;;;;;;23.23;10.38;;;10.50;99.90;;;;;;4913187;28;20381;-68
2023/10/28 08:28:53;;;;;;;19.02;9.73;;;10.70;99.90;;;;;;4969637;28;20280;-68
2023/10/28 08:31:20;;;;;;;21.48;10.48;;;10.60;99.90;;;;;;4950298;28;20219;-68
2023/10/28 08:33:50;;;;;;;24.67;10.50;;;10.60;99.90;;;;;;4954023;28;23134;-68
2023/10/28 08:36:17;;;;;;;18.25;10.60;;;10.50;99.90;;;;;;4954466;28;20207;-67
2023/10/28 08:38:47;;;;;;;19.88;11.07;;;10.60;99.90;;;;;;4943107;28;20651;-68
2023/10/28 08:41:16;;;;;;;20.15;11.27;;;10.70;99.90;;;;;;4953933;28;20227;-68
2023/10/28 08:43:45;;;;;;;17.95;10.80;;;10.70;99.90;;;;;;4936880;28;20234;-68
2023/10/28 08:46:13;;;;;;;20.67;11.18;;;10.40;99.90;;;;;;4941266;28;21542;-68
2023/10/28 08:48:41;;;;;;;20.17;12.18;;;10.70;99.90;;;;;;4968810;28;20226;-68
2023/10/28 08:51:09;;;;;;;24.85;11.20;;;10.60;99.90;;;;;;4936668;28;21007;-68
2023/10/28 08:53:38;;;;;;;16.50;10.07;;;10.70;99.90;;;;;;4945948;28;20246;-67
2023/10/28 08:56:06;;;;;;;24.88;11.45;;;10.60;99.90;;;;;;4948269;28;20222;-67
2023/10/28 08:58:33;;;;;;;20.98;11.13;;;10.70;99.90;;;;;;4941306;28;20249;-67
2023/10/28 09:01:01;;;;;;;22.15;11.55;;;10.70;99.90;;;;;;4959669;28;20231;-68
2023/10/28 09:03:32;;;;;;;17.98;10.63;;;10.70;99.90;;;;;;4969744;28;20226;-68
2023/10/28 09:05:59;;;;;;;19.80;10.88;;;10.70;99.90;;;;;;4946902;28;20210;-68
2023/10/28 09:08:27;;;;;;;18.38;10.30;;;10.50;99.90;;;;;;4966621;28;20733;-68
2023/10/28 09:10:54;;;;;;;20.75;10.68;;;;;;;;;;4950367;28;20198;-68
2023/10/28 09:13:21;;;;;;;19.27;10.70;;;10.90;99.90;;;;;;4942573;28;20721;-68
2023/10/28 09:15:48;;;;;;;19.88;10.20;;;10.40;99.90;;;;;;4974107;28;20366;-68
2023/10/28 09:18:16;;;;;;;20.55;11.73;;;10.70;99.90;;;;;;4965202;28;20264;-68
2023/10/28 09:20:46;;;;;;;19.17;11.15;;;10.80;99.90;;;;;;4965984;28;20231;-68
2023/10/28 09:23:14;;;;;;;16.17;10.77;;;10.90;99.90;;;;;;4973553;28;20273;-68
2023/10/28 09:25:42;;;;;;;17.05;10.40;;;;;;;;;;4947676;28;20232;-68
2023/10/28 09:28:16;;;;;;;19.10;10.57;;;11.00;99.90;;;;;;4957023;28;21199;-68
2023/10/28 09:30:46;;;;;;;16.17;9.95;;;10.90;99.90;;;;;;4938723;28;20230;-68
2023/10/28 09:33:14;;;;;;;18.67;10.60;;;11.00;99.90;;;;;;4960632;28;20768;-68
2023/10/28 09:35:43;;;;;;;19.35;10.13;;;10.10;99.90;;;;;;4971484;28;20219;-68
2023/10/28 09:38:12;;;;;;;18.85;9.98;;;11.20;99.90;;;;;;4952796;28;20470;-68
2023/10/28 09:40:39;;;;;;;16.23;9.65;;;11.00;99.90;;;;;;4968764;28;20206;-68
2023/10/28 09:43:07;;;;;;;16.35;10.45;;;11.10;99.90;;;;;;4954793;28;20934;-68
2023/10/28 09:45:35;;;;;;;18.40;10.43;;;11.70;99.90;;;;;;4940416;28;20605;-68
2023/10/28 09:48:12;;;;;;;16.98;10.30;;;11.30;99.90;;;;;;4954903;28;20238;-68
2023/10/28 09:50:44;;;;;;;14.70;9.10;;;11.10;99.90;;;;;;4945475;28;20615;-68
2023/10/28 09:53:17;;;;;;;20.73;9.43;;;11.10;99.90;;;;;;4947726;28;20334;-68
2023/10/28 09:55:45;;;;;;;14.82;8.98;;;11.10;99.90;;;;;;4949892;28;20318;-69
2023/10/28 09:58:18;;;;;;;19.63;9.80;;;11.30;99.90;;;;;;4932588;28;20717;-69
2023/10/28 10:00:48;;;;;;;13.77;8.80;;;11.10;99.90;;;;;;4929685;28;20223;-68
2023/10/28 10:03:31;;;;;;;19.13;10.25;;;11.30;99.90;;;;;;4960040;28;20725;-69
2023/10/28 10:05:58;;;;;;;16.45;10.05;;;11.40;99.90;;;;;;4979515;28;20213;-68
2023/10/28 10:08:26;;;;;;;19.42;10.32;;;11.30;99.90;;;;;;4958855;28;20785;-69
2023/10/28 10:10:55;;;;;;;18.35;9.38;;;11.30;99.90;;;;;;4976235;28;20199;-69
2023/10/28 10:13:23;;;;;;;20.83;9.43;;;11.30;99.90;;;;;;4955794;28;20317;-68
2023/10/28 10:15:55;;;;;;;14.63;8.98;;;11.30;99.90;;;;;;4927246;28;20218;-68
2023/10/28 10:18:33;;;;;;;12.88;8.77;;;11.30;99.90;;;;;;4954298;28;20241;-68
2023/10/28 10:21:05;;;;;;;26.08;9.73;;;11.30;99.90;;;;;;4975723;28;20231;-68
2023/10/28 10:23:42;;;;;;;14.52;8.88;;;12.20;99.90;;;;;;4959799;28;20416;-68
2023/10/28 10:26:20;;;;;;;15.75;8.98;;;11.40;99.90;;;;;;4978751;28;20225;-68
2023/10/28 10:28:47;;;;;;;14.00;8.70;;;11.30;99.90;;;;;;4958836;28;20203;-68
2023/10/28 10:31:17;;;;;;;13.18;7.75;;;11.40;99.90;;;;;;4949730;28;20221;-68
2023/10/28 10:33:44;;;;;;;14.38;9.93;;;11.40;99.90;;;;;;4970881;28;20207;-68
2023/10/28 10:36:17;;;;;;;18.13;9.38;;;11.30;99.90;;;;;;4982083;28;20218;-68
2023/10/28 10:38:46;;;;;;;13.15;8.38;;;11.40;99.90;;;;;;4969370;28;20850;-68
2023/10/28 10:41:26;;;;;;;18.67;8.60;;;11.30;99.90;;;;;;4983704;28;20425;-68
2023/10/28 10:43:53;;;;;;;13.30;8.40;;;11.40;99.90;;;;;;4966032;28;20203;-68
2023/10/28 10:46:20;;;;;;;14.98;8.32;;;11.40;99.90;;;;;;4951418;28;20996;-68
2023/10/28 10:48:47;;;;;;;13.48;9.02;;;11.40;99.90;;;;;;4965360;28;20210;-68
2023/10/28 10:51:15;;;;;;;18.60;8.95;;;11.50;99.90;;;;;;4978557;28;20201;-68
2023/10/28 10:53:42;;;;;;;19.00;8.98;;;12.10;99.90;;;;;;4962133;28;21055;-68
2023/10/28 10:56:20;;;;;;;15.20;9.55;;;10.40;99.90;;;;;;4964776;28;20607;-68
2023/10/28 10:58:47;;;;;;;14.13;9.05;;;11.60;99.90;;;;;;4958694;28;20226;-68
2023/10/28 11:01:15;;;;;;;16.40;8.88;;;11.70;99.90;;;;;;4959127;28;20306;-69
2023/10/28 11:03:42;;;;;;;14.35;8.27;;;11.60;99.90;;;;;;4949595;28;20632;-68
2023/10/28 11:06:10;;;;;;;11.38;8.32;;;11.70;99.90;;;;;;4976636;28;20444;-68
2023/10/28 11:08:37;;;;;;;12.68;7.82;;;11.70;99.90;;;;;;4941926;28;20581;-68
2023/10/28 11:11:04;;;;;;;14.18;8.07;;;11.60;99.90;;;;;;4980750;28;20198;-68
2023/10/28 11:13:33;;;;;;;16.27;8.40;;;11.90;99.90;;;;;;4946368;28;20219;-68
2023/10/28 11:16:00;;;;;;;16.70;8.30;;;12.20;99.90;;;;;;4961415;28;20203;-68
2023/10/28 11:18:27;;;;;;;26.40;11.85;;;12.40;99.90;;;;;;4931789;28;20258;-68
2023/10/28 11:20:53;;;;;;;14.60;9.70;;;12.40;99.90;;;;;;4960594;28;20237;-68
2023/10/28 11:23:21;;;;;;;15.23;9.38;;;12.30;99.90;;;;;;4972398;28;20224;-68
2023/10/28 11:25:49;;;;;;;13.02;8.02;;;12.20;99.90;;;;;;4959858;28;20203;-68
2023/10/28 11:28:16;;;;;;;13.70;7.88;;;12.20;99.90;;;;;;4960491;28;20231;-68
2023/10/28 11:30:51;;;;;;;23.90;6.88;;;12.00;99.90;;;;;;4961374;28;20206;-68
2023/10/28 11:33:18;;;;;;;24.08;7.75;;;;;;;;;;4943751;28;20231;-68
2023/10/28 11:35:50;;;;;;;13.23;6.55;;;12.00;99.90;;;;;;4962749;28;20233;-68
2023/10/28 11:38:17;;;;;;;8.93;6.82;;;11.90;99.90;;;;;;4968610;28;20656;-68
2023/10/28 11:40:44;;;;;;;9.85;6.47;;;12.00;99.90;;;;;;4941938;28;20195;-68
2023/10/28 11:43:11;;;;;;;8.43;6.28;;;;;;;;;;4971220;28;20211;-68
2023/10/28 11:45:38;;;;;;;10.13;6.03;;;12.00;99.90;;;;;;4953836;28;20257;-68
2023/10/28 11:48:08;;;;;;;10.13;5.95;;;12.00;99.90;;;;;;4933495;28;20236;-68
2023/10/28 11:50:35;;;;;;;7.22;6.05;;;12.00;99.90;;;;;;4958366;28;20633;-68
2023/10/28 11:53:02;;;;;;;11.52;6.80;;;12.00;99.90;;;;;;4973352;28;20229;-68
2023/10/28 11:55:29;;;;;;;10.15;7.03;;;11.90;99.90;;;;;;4955210;28;20241;-68
2023/10/28 11:57:55;;;;;;;12.60;5.95;;;12.00;99.90;;;;;;4971262;28;20718;-68
2023/10/28 12:00:22;;;;;;;8.50;5.65;;;12.00;99.90;;;;;;4955420;28;20231;-68
2023/10/28 12:02:49;;;;;;;15.02;7.50;;;12.00;99.90;;;;;;4947172;28;20218;-68
2023/10/28 12:05:17;;;;;;;9.50;5.93;;;12.00;99.90;;;;;;4948565;28;20223;-68
2023/10/28 12:07:44;;;;;;;7.20;5.93;;;12.10;99.90;;;;;;4963147;28;20225;-68
2023/10/28 12:10:13;;;;;;;11.50;4.75;;;12.00;99.90;;;;;;4947672;28;20241;-68
2023/10/28 12:12:39;;;;;;;10.18;7.22;;;12.50;99.90;;;;;;4955089;28;21269;-68
2023/10/28 12:15:07;;;;;;;14.00;8.07;;;12.30;99.90;;;;;;4945702;28;20223;-68
2023/10/28 12:17:34;;;;;;;13.75;6.10;;;12.40;99.90;;;;;;4970418;28;20234;-68
2023/10/28 12:20:02;;;;;;;9.52;5.25;;;12.20;99.90;;;;;;4928098;28;20384;-68
2023/10/28 12:22:30;;;;;;;13.02;5.88;;;12.60;99.90;;;;;;4975027;28;20213;-68
2023/10/28 12:24:57;;;;;;;10.90;6.03;;;12.20;99.90;;;;;;4954788;28;20215;-68
2023/10/28 12:27:24;;;;;;;7.75;4.55;;;12.20;99.90;;;;;;4961389;28;20226;-68
2023/10/28 12:29:51;;;;;;;8.90;5.35;;;12.10;99.90;;;;;;4947067;28;20879;-68
2023/10/28 12:32:17;;;;;;;9.75;5.10;;;12.20;99.90;;;;;;4957189;28;21090;-68
2023/10/28 12:34:44;;;;;;;9.25;3.72;;;12.10;99.90;;;;;;4933694;28;21413;-68
2023/10/28 12:37:11;;;;;;;8.60;4.20;;;12.20;99.90;;;;;;4961786;28;20254;-68
2023/10/28 12:39:39;;;;;;;9.50;4.40;;;12.30;99.90;;;;;;4947138;28;20234;-68
2023/10/28 12:42:06;;;;;;;7.68;4.10;;;12.10;99.90;;;;;;4939668;28;20223;-69
2023/10/28 12:44:33;;;;;;;44.67;5.70;;;12.10;99.90;;;;;;4965284;28;20210;-69
2023/10/28 12:47:00;;;;;;;7.75;4.47;;;12.20;99.90;;;;;;4947623;28;20227;-69
2023/10/28 12:49:27;;;;;;;25.83;5.03;;;;;;;;;;4948721;28;20210;-69